Flugplatz Leutkirch-Unterzeil

Für EDNL sind keine METAR/TAF Berichte vorhanden.
Es werden die Flugwettermeldungen vom Flugplatz Memmingen Allgau in 22 km Entfernung angezeigt.

Bericht für EDJA

vom 25.01. um 23:20 UTC

Wind 4 kt aus 190°

Sichtweite 10 km oder mehr

bedeckt in 9300 ft

Temperatur 1.0°C

Taupunkt 0.0°C

Luftfeuchtigkeit 93%

Luftdruck 1020 hPa

EDJA 252320Z AUTO 19004KT 9999 // OVC093/// 01/M00 Q1020

Prognose für EDJA

vom 25.01. um 00:00 UTC

Am 25.01. zwischen 00:00 UTC und 00:00 UTC

variable Windrichtung mit 3 kt

Sichtweite 8000 m

keine Wolken


Am 25.01. zwischen 00:00 und 00:00 UTC übergehend zu

variable Windrichtung mit 3 kt

Sichtweite 3000 m

feuchter Dunst

keine Wolken


Am 25.01. zwischen 00:00 UTC und 00:00 UTC zeitweise mit einer Wahrscheinlichkeit von 30%

Sichtweite 500 m

Code: FZFG

TAF EDJA 251700Z 2518/2603 VRB03KT 8000 NSC BECMG 2520/2523 3000 BR PROB30 TEMPO 2523/2603 0500 FZFG VV001
Impressum